• Join FlightAware (Why Join?)
  • Login
  • US Flag 
02:14AM EDT


 

Airport Tracker/Info


-or-


 

Live Flight TrackerFlight Track Log ✈ CDG1158 ✈ 29-Aug-2014 ✈ ZSJN / TNA - ZSWY / WUS

Flight Track Log - Related Links

Times and Time Zones

All times are in EDT time to prevent confusion due to time zone crossing. See the CDG1158 flight status page for this flight to view local times or setup timezone preferences in your user account.

Time Position Orientation Groundspeed Altitude Reporting Facility
EDT Latitude Longitude Course Direction KTS MPH feet Rate Location/Type
01:08AM 35.5075 117.3424 176° South  Level Estimated
01:09AM 35.4111 117.3513 176° South  Level Estimated
01:10AM 35.3147 117.3602 176° South  Level Estimated
01:11AM 35.2184 117.3690 176° South  Level Estimated
01:12AM 35.1220 117.3778 176° South  Level Estimated
01:13AM 35.0256 117.3866 176° South  Level Estimated
01:14AM 34.9293 117.3953 176° South  Level Estimated
01:15AM 34.8329 117.4041 176° South  Level Estimated
01:16AM 34.7365 117.4128 176° South  Level Estimated
01:17AM 34.6401 117.4215 176° South  Level Estimated
01:18AM 34.5438 117.4302 176° South  Level Estimated
01:19AM 34.4474 117.4388 176° South  Level Estimated
01:20AM 34.3510 117.4475 176° South  Level Estimated
01:21AM 34.2547 117.4561 176° South  Level Estimated
01:22AM 34.1583 117.4647 176° South  Level Estimated
01:23AM 34.0619 117.4733 176° South  Level Estimated
01:24AM 33.9655 117.4818 176° South  Level Estimated
01:25AM 33.8691 117.4904 176° South  Level Estimated
01:26AM 33.7728 117.4989 176° South  Level Estimated
01:27AM 33.6764 117.5074 176° South  Level Estimated
01:28AM 33.5800 117.5159 176° South  Level Estimated
01:29AM 33.4836 117.5244 176° South  Level Estimated
01:30AM 33.3872 117.5328 176° South  Level Estimated
01:31AM 33.2909 117.5412 176° South  Level Estimated
01:32AM 33.1945 117.5497 176° South  Level Estimated
01:33AM 33.0981 117.5580 176° South  Level Estimated
01:34AM 33.0017 117.5664 176° South  Level Estimated
01:35AM 32.9053 117.5748 176° South  Level Estimated
01:36AM 32.8089 117.5831 176° South  Level Estimated
01:37AM 32.7126 117.5914 176° South  Level Estimated
01:38AM 32.6162 117.5997 176° South  Level Estimated
01:39AM 32.5198 117.6080 176° South  Level Estimated
01:40AM 32.4234 117.6163 176° South  Level Estimated
01:41AM 32.3270 117.6245 176° South  Level Estimated
01:42AM 32.2306 117.6328 176° South  Level Estimated
01:43AM 32.1342 117.6410 176° South  Level Estimated
01:44AM 32.0379 117.6492 176° South  Level Estimated
01:45AM 31.9415 117.6573 176° South  Level Estimated
01:46AM 31.8451 117.6655 176° South  Level Estimated
01:47AM 31.7487 117.6736 176° South  Level Estimated
01:48AM 31.6523 117.6818 176° South  Level Estimated
01:49AM 31.5559 117.6899 176° South  Level Estimated
01:50AM 31.4595 117.6980 176° South  Level Estimated
01:51AM 31.3631 117.7060 176° South  Level Estimated
01:52AM 31.2667 117.7141 176° South  Level Estimated
01:53AM 31.1703 117.7222 176° South  Level Estimated
01:54AM 31.0739 117.7302 176° South  Level Estimated
01:55AM 30.9776 117.7382 176° South  Level Estimated
01:56AM 30.8811 117.7462 176° South  Level Estimated
01:57AM 30.7848 117.7542 176° South  Level Estimated
01:58AM 30.6884 117.7621 176° South  Level Estimated
01:59AM 30.5920 117.7701 176° South  Level Estimated
02:00AM 30.4956 117.7780 176° South  Level Estimated
02:01AM 30.3992 117.7859 176° South  Level Estimated
02:02AM 30.3028 117.7938 176° South  Level Estimated
02:03AM 30.2064 117.8017 176° South  Level Estimated
02:04AM 30.1100 117.8096 176° South  Level Estimated
02:05AM 30.0136 117.8174 176° South  Level Estimated
02:06AM 29.9172 117.8253 176° South  Level Estimated
02:07AM 29.8208 117.8331 176° South  Level Estimated
02:08AM 29.7244 117.8409 176° South  Level Estimated
02:09AM 29.6280 117.8487 176° South  Level Estimated
02:10AM 29.5316 117.8565 176° South  Level Estimated
02:11AM 29.4352 117.8642 176° South  Level Estimated
02:12AM 29.3388 117.8720 176° South  Level Estimated
02:13AM 29.2424 117.8797 176° South  Level Estimated
02:14AM 29.1460 117.8874 176° South  Level Estimated
02:15AM 29.0496 117.8951 176° South  Level Estimated
02:16AM 28.9532 117.9028 176° South  Level Estimated
02:17AM 28.8568 117.9105 176° South  Level Estimated
02:18AM 28.7604 117.9182 176° South  Level Estimated
02:19AM 28.6639 117.9258 176° South  Level Estimated
02:20AM 28.5676 117.9335 176° South  Level Estimated
02:21AM 28.4711 117.9411 176° South  Level Estimated
02:22AM 28.3747 117.9487 176° South  Level Estimated
02:23AM 28.2783 117.9563 176° South  Level Estimated
02:24AM 28.1819 117.9639 176° South  Level Estimated
02:25AM 28.0855 117.9714 176° South  Level Estimated
02:26AM 27.9891 117.9790 176° South  Level Estimated
02:27AM 27.8927 117.9865 176° South  Level Estimated
02:28AM 27.7963 117.9940 176° South  Level Estimated
02:29AM 27.7019 118.0014 176° South  Level Estimated
02:30AM 27.7019 118.0014 North  Level Estimated
02:31AM 27.7019 118.0014 North  Level Estimated
02:32AM 27.7019 118.0014 North  Level Estimated
02:33AM 27.7019 118.0014 North  Level Estimated
02:34AM 27.7019 118.0014 North  Level Estimated
02:35AM 27.7019 118.0014 North  Level Estimated
02:36AM 27.7019 118.0014 North  Level Estimated
02:37AM 27.7019 118.0014 North  Level Estimated
02:38AM 27.7019 118.0014 North  Level Estimated
02:39AM 27.7019 118.0014 North  Level Estimated
02:40AM 27.7019 118.0014 North  Level Estimated
02:41AM 27.7019 118.0014 North  Level Estimated
02:42AM 27.7019 118.0014 North  Level Estimated
02:43AM 27.7019 118.0014 North  Level Estimated
02:44AM 27.7019 118.0014 North  Level Estimated
02:45AM 27.7019 118.0014 North  Level Estimated